Sea Island, GA

9:15 AM EDT on September 03, 2015 (GMT -0400)
McKinnon | | Change Station
CLOSE
Current Station
Airport
Location: Saint Simons Island,
Elevation: 20 ft
Nearby Weather Stations
Active Advisory: Special Statement

Elev 20 ft 31.15 °N, 81.39 °W | Updated 22 minutes ago

Overcast
Overcast
75 °F
Feels Like 75 °F
N
8
Wind Variable Wind from WNW

Today
High -- | Low -- °F
--% Chance of Precip.
Yesterday
High -- | Low -- °F
Precip. -- in
7:02 AM 7:46 PM
Waning Gibbous, 70% visible
Pressure 29.98 in
Visibility 9.0 miles
Clouds Overcast 600 ft
Dew Point 75 °F
Humidity 100%
Rainfall 0.00 in
Snow Depth Not available.
UV 1 out of 12
Pollen 5.20 out of 12
Air Quality Not available.
Flu Activity Not available.
METAR KSSI 031253Z AUTO 29007KT 9SM OVC006 24/24 A2997 RMK AO2 LTG DSNT NE CIG 004V008 SLP151 T02390239
Pressure 29.98 in
Visibility 9.0 miles
Clouds Overcast 600 ft
Dew Point 75 °F
Humidity 100%
Rainfall 0.00 in
Snow Depth Not available.
UV 1 out of 12
Pollen 5.20 out of 12
Air Quality Not available.
Flu Activity Not available.
METAR KSSI 031253Z AUTO 29007KT 9SM OVC006 24/24 A2997 RMK AO2 LTG DSNT NE CIG 004V008 SLP151 T02390239

10-Day Weather Forecast

×

Almanac

Astronomy

Sep. 03, 2015 Rise Set
Actual Time
Civil Twilight
Nautical Twilight
Astronomical Twilight
Moon
Length of Visible Light
Length of Day
Tomorrow will be .
, % of the Moon is Illuminated

Today's Extremes

State Highs State Lows

Community

WunderPhotos

Upload Photos

1,851,952 photos uploaded!

WunderBlogs® & News

Nearby

Air Quality

  Air Quality AQ Index Pollutant
Not available.

Snow Depth

Station Depth Elevation

Earthquake Activity

City Distance Mag. Time & Date
Minimum magnitude displayed is 2.5.

Coastal Water Temperatures

Place Temperature

Stations

Nearby Weather Stations

Station Location Temp. Windchill Dew Point Humidity Wind Precip. Elev Updated Type
                   
Special Statement
Statement as of 7:48 AM EDT on September 03, 2015

... Patchy dense fog...

Patchy dense fog will affect portions of southeast Georgia
through the mid morning hours today. Local visibilities near or
below a quarter of a mile are expected at times.

Motorists should remain alert for sudden changes in visibility...
especially in low spots and near marshes... rivers... creeks or
lakes. If driving... slow down and leave extra distance ahead of
you in case a sudden stop is needed.


748 am EDT Thu Sep 3 2015

... Patchy dense fog...

Patchy dense fog will affect portions of southeast Georgia
through the mid morning hours today. Local visibilities near or
below a quarter of a mile are expected at times.

Motorists should remain alert for sudden changes in visibility...
especially in low spots and near marshes... rivers... creeks or
lakes. If driving... slow down and leave extra distance ahead of
you in case a sudden stop is needed.